Pagrindinis puslapis
METAR-TAF:

METAR-TAF

Oro uostai :

Bender Mahšahras, Iranas

platuma: 30-33-23N, ilguma: 049-09-07E, Aukštis: 2 m

Dabartinis oras

Ataskaita buvo paskelbta 24 minutes, ne 10:00 UTC
Vėjas 10 kt iš Pietų/Pietryčių
Temperatūra 19°C
Drėgmė 60%
Slėgis 1013 hPa
Matomumas: 8000 m
Su prošvaistėmis ne aukštis 3000 ft, Liūtiniai kamuoliniai debesys.

METAR: OIAM 261000Z 16010KT 8000 BKN030CB 19/11 Q1013

Laikas: 13:54 (10:24 UTC)


TAF: trūkstamas

Orai ataskaitas ir orų prognozės (METAR, TAF).

turimą stotys yra geltonos ir raudonos taškus žemėlapyje.

Perkelti pele per norėdami pamatyti stoties vardą.

Tada spustelėkite, norėdami matyti oro stebėjimo ir prognozės.

Norėdami pakeisti žemėlapį: spustelėkite ant žalios mygtukų su juodo kryžiaus žemyn,; žalią mygtuką su brūkšneliu, jei norite nutolinti; arba žalių rodyklių gretimoms žemėlapius.


METAR-TAF: